Time;durP1;ratioP1;P1;durP2;ratioP2;P2;SDS_P1;SDS_P2;PMS_P1;PMS_P2;Temp;Humidity;BMP_temperature;BMP_pressure;BME280_temperature;BME280_humidity;BME280_pressure;Samples;Min_cycle;Max_cycle;Signal;HPM_P1;HPM_P2
2023/04/03 00:02:47;;;;;;;5.37;3.30;;;7.70;92.80;;;6.07;64.71;99991.09;10488399;27;96681;-80
2023/04/03 00:07:50;;;;;;;5.40;3.50;;;7.60;92.70;;;6.07;64.97;99996.38;10501553;27;96539;-80
2023/04/03 00:12:53;;;;;;;5.27;3.37;;;7.70;92.90;;;6.02;64.42;99996.81;10490234;27;96446;-81
2023/04/03 00:17:56;;;;;;;4.70;3.37;;;7.60;92.70;;;6.02;64.67;99990.69;10495413;27;98327;-80
2023/04/03 00:23:01;;;;;;;4.30;3.17;;;7.60;92.80;;;6.01;64.59;99994.31;10509653;27;96457;-80
2023/04/03 00:28:05;;;;;;;4.67;3.10;;;7.60;92.80;;;6.01;64.14;99999.59;10480047;27;97652;-80
2023/04/03 00:33:11;;;;;;;4.50;3.07;;;7.60;92.60;;;5.99;64.45;99997.06;10456718;27;96562;-81
2023/04/03 00:38:15;;;;;;;4.67;3.13;;;7.60;92.50;;;5.99;64.59;100007.63;10494224;27;96611;-82
2023/04/03 00:43:26;;;;;;;5.33;3.23;;;7.60;92.60;;;5.89;64.35;100012.91;10466735;27;96745;-80
2023/04/03 00:48:44;;;;;;;4.20;2.95;;;7.60;92.50;;;5.78;64.89;100009.59;10510094;27;97714;-80
2023/04/03 00:53:59;;;;;;;4.80;3.13;;;7.50;92.60;;;5.73;65.13;100015.28;10499949;27;96614;-80
2023/04/03 00:59:15;;;;;;;5.17;3.57;;;7.40;92.60;;;5.71;64.60;100024.31;10477259;27;96540;-80
2023/04/03 01:04:30;;;;;;;5.00;2.87;;;7.40;92.60;;;5.72;64.74;100015.44;10479047;27;98231;-80
2023/04/03 01:09:34;;;;;;;5.23;3.10;;;7.30;92.50;;;5.75;64.23;100020.41;10497387;27;96608;-80
2023/04/03 01:14:38;;;;;;;4.37;3.03;;;7.30;92.30;;;5.76;63.61;100024.75;10496878;27;96725;-80
2023/04/03 01:19:47;;;;;;;4.73;3.10;;;7.40;91.80;;;5.76;63.44;100022.09;10518383;27;96530;-80
2023/04/03 01:24:53;;;;;;;4.53;2.97;;;7.40;92.00;;;5.75;62.66;100023.06;10510196;27;96743;-80
2023/04/03 01:29:56;;;;;;;4.00;2.83;;;7.40;91.60;;;5.73;62.35;100019.75;10521692;27;96549;-80
2023/04/03 01:34:59;;;;;;;5.53;3.50;;;7.30;91.30;;;5.70;63.17;100028.78;10501454;27;98501;-80
2023/04/03 01:40:04;;;;;;;4.20;2.67;;;7.30;91.80;;;5.66;63.39;100021.28;10509394;27;98190;-80
2023/04/03 01:45:07;;;;;;;5.33;3.30;;;7.30;91.70;;;5.56;64.24;100027.38;10528368;27;96655;-80
2023/04/03 01:50:10;;;;;;;6.20;3.50;;;7.20;91.90;;;5.52;64.37;100033.91;10515148;27;96468;-81
2023/04/03 01:55:13;;;;;;;6.30;2.97;;;7.20;92.10;;;5.48;63.76;100029.06;10486202;27;96553;-81
2023/04/03 02:00:16;;;;;;;5.63;3.17;;;7.10;91.80;;;5.45;63.95;100037.22;10478155;27;97800;-81
2023/04/03 02:05:19;;;;;;;3.67;2.67;;;7.10;91.80;;;5.38;64.26;100036.94;10512074;27;96545;-81
2023/04/03 02:10:22;;;;;;;17.17;6.23;;;7.00;92.00;;;5.27;64.91;100045.81;10498920;27;96595;-81
2023/04/03 02:15:25;;;;;;;5.33;3.03;;;7.00;92.20;;;5.19;65.23;100045.69;10511973;27;96574;-81
2023/04/03 02:20:29;;;;;;;4.47;2.70;;;6.90;92.30;;;5.12;65.75;100051.63;10476807;27;96548;-81
2023/04/03 02:25:33;;;;;;;3.80;2.60;;;6.80;92.40;;;5.09;65.67;100056.19;10478386;27;96519;-80
2023/04/03 02:30:39;;;;;;;5.80;3.13;;;6.80;92.40;;;5.06;65.26;100058.28;10470190;27;96797;-80
2023/04/03 02:35:42;;;;;;;5.03;2.57;;;6.70;92.40;;;5.02;65.32;100051.63;10484127;27;96728;-80
2023/04/03 02:40:45;;;;;;;5.10;3.13;;;6.70;92.30;;;5.00;65.71;100058.81;10474566;27;97606;-80
2023/04/03 02:45:48;;;;;;;4.33;2.90;;;6.70;92.50;;;4.93;66.64;100055.91;10501014;27;96834;-81
2023/04/03 02:50:51;;;;;;;3.50;2.53;;;6.60;92.70;;;4.95;66.19;100050.50;10485069;27;98683;-80
2023/04/03 02:55:55;;;;;;;3.73;2.40;;;6.60;92.70;;;4.95;65.31;100050.50;10485003;27;96492;-81
2023/04/03 03:00:58;;;;;;;5.40;2.80;;;6.60;92.50;;;4.94;64.24;100052.28;10468500;27;98537;-80
2023/04/03 03:06:02;;;;;;;4.73;2.40;;;6.60;91.90;;;4.91;63.50;100057.81;10449311;27;97749;-81
2023/04/03 03:11:06;;;;;;;5.67;2.70;;;6.50;91.40;;;4.84;63.62;100056.69;10494579;27;96701;-81
2023/04/03 03:16:09;;;;;;;3.93;2.47;;;6.50;91.20;;;4.77;64.12;100052.94;10480912;27;96612;-81
2023/04/03 03:21:12;;;;;;;2.90;2.10;;;6.40;91.60;;;4.70;64.40;100060.53;10468813;27;98801;-80
2023/04/03 03:26:16;;;;;;;3.60;2.50;;;6.30;91.70;;;4.59;65.10;100059.81;10505019;27;97361;-80
2023/04/03 03:31:19;;;;;;;3.90;2.50;;;6.30;92.00;;;4.46;66.54;100067.94;10490312;27;96658;-80
2023/04/03 03:36:22;;;;;;;4.80;3.00;;;6.20;92.40;;;4.29;67.47;100067.56;10474229;27;96510;-80
2023/04/03 03:41:26;;;;;;;4.00;2.80;;;6.00;92.80;;;4.21;68.39;100063.94;10492940;27;96770;-80
2023/04/03 03:46:29;;;;;;;4.73;2.63;;;5.90;93.00;;;4.08;68.87;100063.28;10455642;27;96627;-80
2023/04/03 03:51:32;;;;;;;4.23;2.80;;;5.80;93.30;;;3.97;68.80;100062.41;10507196;27;96464;-80
2023/04/03 03:56:35;;;;;;;4.93;2.90;;;5.70;93.40;;;3.87;68.91;100060.69;10486739;27;96694;-80
2023/04/03 04:01:39;;;;;;;4.40;2.47;;;5.60;93.50;;;3.77;69.49;100065.84;10504803;27;96786;-80
2023/04/03 04:06:42;;;;;;;3.90;2.63;;;5.50;93.50;;;3.65;68.83;100067.72;10490458;27;96467;-80
2023/04/03 04:11:45;;;;;;;3.93;2.47;;;5.40;93.40;;;3.55;68.30;100068.63;10489945;27;96505;-80
2023/04/03 04:16:49;;;;;;;3.83;2.50;;;5.30;93.40;;;3.43;68.69;100063.41;10525833;27;96564;-79
2023/04/03 04:21:51;;;;;;;4.53;2.70;;;5.20;93.30;;;3.32;68.91;100076.56;10543017;27;96521;-78
2023/04/03 04:26:55;;;;;;;3.03;1.93;;;5.10;93.40;;;3.24;69.09;100076.38;10502193;27;96914;-78
2023/04/03 04:31:58;;;;;;;3.23;2.20;;;5.00;93.50;;;3.18;69.39;100090.00;10514452;27;97462;-78
2023/04/03 04:37:01;;;;;;;3.53;2.37;;;4.90;93.50;;;3.16;69.53;100097.13;10510015;27;97725;-78
2023/04/03 04:42:04;;;;;;;54.13;22.93;;;4.90;93.50;;;3.15;69.34;100105.97;10497479;27;96617;-79
2023/04/03 04:47:07;;;;;;;6.63;3.40;;;4.90;93.60;;;3.18;69.64;100100.50;10508012;27;98714;-78
2023/04/03 04:52:11;;;;;;;4.43;2.90;;;4.90;93.80;;;3.21;69.44;100095.81;10521202;27;97511;-80
2023/04/03 04:57:15;;;;;;;4.73;2.97;;;4.90;93.80;;;3.27;69.55;100094.50;10521858;27;98357;-78
2023/04/03 05:02:18;;;;;;;18.87;8.87;;;5.00;93.80;;;3.32;69.00;100092.31;10486101;27;98019;-78
2023/04/03 05:07:21;;;;;;;6.10;3.10;;;5.00;93.60;;;3.36;69.24;100095.53;10494194;27;96855;-78
2023/04/03 05:12:24;;;;;;;5.10;2.90;;;5.00;93.70;;;3.37;68.59;100098.06;10500762;27;96619;-79
2023/04/03 05:17:28;;;;;;;4.10;2.43;;;5.10;93.60;;;3.40;68.81;100099.56;10503046;27;97756;-78
2023/04/03 05:22:31;;;;;;;4.60;2.50;;;5.10;93.60;;;3.43;68.34;100105.44;10494941;27;96542;-79
2023/04/03 05:27:34;;;;;;;17.53;11.07;;;5.10;93.50;;;3.45;68.12;100103.50;10491272;27;96576;-83
2023/04/03 05:32:37;;;;;;;6.13;3.80;;;5.10;93.50;;;3.56;68.68;100114.94;10447104;27;97223;-78
2023/04/03 05:37:41;;;;;;;6.60;4.10;;;5.20;93.60;;;3.69;69.23;100118.22;10457615;27;98244;-78
2023/04/03 05:42:44;;;;;;;6.13;4.13;;;5.30;94.00;;;3.86;69.13;100116.84;10457340;27;96602;-78
2023/04/03 05:47:47;;;;;;;51.57;22.17;;;5.50;93.90;;;4.02;68.65;100118.09;10438663;27;96499;-78
2023/04/03 05:52:52;;;;;;;6.27;3.20;;;5.60;93.80;;;4.17;67.64;100108.06;10474186;27;98099;-78
2023/04/03 05:57:56;;;;;;;7.73;6.03;;;5.70;93.40;;;4.29;66.62;100116.72;10456049;27;96499;-78
2023/04/03 06:02:59;;;;;;;4.63;2.50;;;5.90;93.30;;;4.46;66.11;100121.38;10417766;27;96475;-78
2023/04/03 06:08:03;;;;;;;7.47;5.30;;;6.00;93.20;;;4.67;65.23;100115.25;10469104;27;96550;-78
2023/04/03 06:13:06;;;;;;;5.53;2.80;;;6.20;92.90;;;4.97;64.24;100131.00;10450842;27;97114;-77
2023/04/03 06:18:10;;;;;;;2.53;1.93;;;6.50;92.60;;;5.32;63.55;100129.72;10478452;27;98050;-77
2023/04/03 06:23:13;;;;;;;6.53;1.70;;;6.80;92.10;;;5.69;61.23;100129.06;10483154;27;96669;-77
2023/04/03 06:28:19;;;;;;;2.27;1.40;;;7.10;91.10;;;5.97;60.06;100128.28;10494612;27;96715;-77
2023/04/03 06:33:22;;;;;;;6.80;2.50;;;7.40;91.00;;;6.21;59.98;100133.13;10503332;27;96512;-77
2023/04/03 06:38:24;;;;;;;3.23;1.70;;;7.60;90.60;;;6.35;58.88;100129.19;10521956;27;96441;-77
2023/04/03 06:43:27;;;;;;;3.40;1.80;;;7.80;89.80;;;6.46;57.83;100144.88;10500044;27;96852;-77
2023/04/03 06:48:31;;;;;;;4.70;2.30;;;7.90;89.40;;;6.50;57.64;100143.63;10523918;27;96589;-77
2023/04/03 06:53:34;;;;;;;2.50;1.30;;;7.90;89.00;;;6.66;57.24;100140.38;10500485;27;96566;-77
2023/04/03 06:58:37;;;;;;;3.57;1.53;;;8.10;87.40;;;6.80;56.64;100144.34;10524205;27;96638;-77
2023/04/03 07:03:41;;;;;;;2.43;1.20;;;8.20;87.00;;;6.97;56.29;100151.53;10508548;27;98554;-78
2023/04/03 07:08:45;;;;;;;2.63;1.40;;;8.30;86.70;;;7.14;55.64;100149.91;10496066;27;96671;-78
2023/04/03 07:13:48;;;;;;;2.30;1.37;;;8.50;85.90;;;7.40;54.56;100155.34;10493271;27;98478;-78
2023/04/03 07:18:52;;;;;;;3.20;1.33;;;8.70;84.30;;;7.58;54.41;100155.34;10471907;27;98344;-78
2023/04/03 07:23:55;;;;;;;2.80;1.37;;;8.90;84.60;;;7.65;53.53;100162.53;10478471;27;99532;-76
2023/04/03 07:28:59;;;;;;;2.00;1.20;;;9.00;83.60;;;7.64;52.99;100166.16;10472950;27;96499;-76
2023/04/03 07:34:03;;;;;;;2.27;1.10;;;9.00;82.20;;;7.76;53.42;100167.59;10494356;27;98606;-76
2023/04/03 07:39:06;;;;;;;2.13;1.00;;;9.10;82.50;;;8.09;53.61;100159.13;10481035;27;97460;-76
2023/04/03 07:44:10;;;;;;;2.17;1.30;;;9.30;83.30;;;8.44;52.52;100159.09;10468839;27;96621;-76
2023/04/03 07:49:14;;;;;;;1.80;0.83;;;9.70;83.00;;;8.60;49.82;100161.03;10486612;27;96447;-76
2023/04/03 07:54:17;;;;;;;1.07;0.60;;;9.90;78.70;;;8.88;50.52;100168.81;10466943;27;97326;-76
2023/04/03 07:59:20;;;;;;;2.30;1.30;;;10.10;80.10;;;9.11;47.75;100167.25;10444687;27;96601;-75
2023/04/03 08:04:23;;;;;;;0.77;0.60;;;10.40;76.90;;;9.16;47.41;100167.63;10468121;27;97265;-76
2023/04/03 08:09:27;;;;;;;0.73;0.50;;;10.50;76.40;;;9.31;45.61;100157.25;10455754;27;98606;-76
2023/04/03 08:14:34;;;;;;;1.47;0.70;;;10.70;71.20;;;9.38;46.67;100161.75;10446508;27;97609;-76
2023/04/03 08:19:41;;;;;;;1.67;0.70;;;10.70;74.10;;;9.50;46.26;100172.88;10453114;27;96943;-76
2023/04/03 08:24:44;;;;;;;1.63;0.97;;;10.80;73.60;;;9.65;46.36;100173.94;10486317;27;97294;-76
2023/04/03 08:29:58;;;;;;;1.23;0.60;;;10.90;73.70;;;10.58;45.85;100171.00;10524049;27;96501;-77
2023/04/03 08:35:01;;;;;;;0.97;0.50;;;11.30;73.70;;;11.49;43.63;100167.84;10498893;27;96553;-77
2023/04/03 08:40:14;;;;;;;1.60;0.70;;;11.90;73.00;;;12.02;43.12;100163.56;10485617;27;96787;-79
2023/04/03 08:45:45;;;;;;;1.20;0.60;;;12.60;71.80;;;12.41;40.60;100151.06;10524940;27;96673;-79
2023/04/03 08:50:57;;;;;;;0.60;0.40;;;13.10;69.20;;;12.38;39.65;100154.13;10514651;27;96673;-79
2023/04/03 08:56:07;;;;;;;0.93;0.50;;;13.50;65.90;;;12.46;39.98;100148.69;10495980;27;99242;-79
2023/04/03 09:01:40;;;;;;;1.10;0.50;;;13.30;65.20;;;12.28;37.58;100141.88;10511799;27;96521;-78
2023/04/03 09:06:59;;;;;;;2.22;0.50;;;13.40;61.60;;;12.78;38.92;100144.91;10531007;27;96631;-79
2023/04/03 09:12:17;;;;;;;1.10;0.70;;;14.00;62.00;;;13.40;39.24;100144.50;10502933;27;96654;-79
2023/04/03 09:17:38;;;;;;;0.93;0.60;;;14.80;62.50;;;13.02;36.94;100147.28;10478241;27;96551;-79
2023/04/03 09:22:43;;;;;;;;;;;14.60;57.70;;;12.25;37.50;100162.72;10471155;27;96708;-79
2023/04/03 09:27:53;;;;;;;0.83;0.50;;;13.90;56.70;;;11.62;38.89;100155.81;10473869;27;96652;-79
2023/04/03 09:32:57;;;;;;;1.02;0.60;;;13.20;58.80;;;11.22;39.63;100160.34;10457955;27;96678;-79
2023/04/03 09:38:20;;;;;;;0.55;0.40;;;12.70;59.30;;;11.29;39.37;100161.31;10434623;27;96499;-80
2023/04/03 09:43:31;;;;;;;1.10;0.63;;;12.70;60.20;;;11.68;39.86;100155.09;10451837;27;96943;-80
2023/04/03 09:48:34;;;;;;;2.10;1.10;;;12.90;60.70;;;11.74;38.92;100162.38;10474515;27;96604;-79
2023/04/03 09:53:42;;;;;;;69.23;40.37;;;13.10;59.50;;;11.47;39.36;100164.56;10511047;27;96564;-79
2023/04/03 09:59:13;;;;;;;11.10;8.27;;;12.90;58.80;;;11.25;39.37;100162.66;10460582;27;96570;-79
2023/04/03 10:04:18;;;;;;;2.83;2.00;;;12.70;58.60;;;11.04;39.85;100162.44;10459334;27;96919;-79
2023/04/03 10:09:32;;;;;;;1.13;0.70;;;12.50;58.50;;;10.96;39.67;100164.09;10491032;27;97760;-79
2023/04/03 10:14:57;;;;;;;0.70;0.57;;;12.50;58.70;;;10.97;40.30;100163.13;10472361;27;96430;-79
2023/04/03 10:20:43;;;;;;;1.03;0.60;;;12.50;58.90;;;11.68;40.63;100158.59;10451600;27;97095;-78
2023/04/03 10:26:25;;;;;;;1.43;0.73;;;12.90;59.70;;;12.02;35.95;100152.91;10462241;27;96656;-78
2023/04/03 10:31:42;;;;;;;1.07;0.60;;;13.40;55.80;;;11.66;37.95;100152.63;10490231;27;96553;-77
2023/04/03 10:37:16;;;;;;;1.10;0.43;;;13.20;56.70;;;11.32;39.25;100160.97;10475089;27;96409;-78
2023/04/03 10:42:26;;;;;;;1.67;0.90;;;12.80;57.20;;;10.93;38.98;100156.47;10482447;27;96629;-77
2023/04/03 10:47:54;;;;;;;1.37;0.60;;;12.60;56.80;;;10.70;39.63;100158.19;10491015;27;96501;-78
2023/04/03 10:53:17;;;;;;;0.93;0.53;;;12.30;57.50;;;10.70;39.88;100164.34;10474958;27;96940;-78
2023/04/03 10:58:45;;;;;;;2.73;0.90;;;12.30;58.00;;;10.54;40.73;100164.34;10489735;27;96616;-78
2023/04/03 11:04:03;;;;;;;8.93;4.73;;;12.20;58.30;;;10.40;40.82;100162.38;10468439;27;97253;-78
2023/04/03 11:09:33;;;;;;;5.03;2.10;;;12.00;58.40;;;10.25;40.12;100164.03;10457936;27;97515;-77
2023/04/03 11:14:38;;;;;;;14.33;5.40;;;11.90;58.00;;;10.16;41.06;100163.19;10468058;27;97755;-85
2023/04/03 11:20:18;;;;;;;10.97;4.33;;;11.70;58.60;;;10.00;41.37;100155.22;10451488;27;96622;-78
2023/04/03 11:25:25;;;;;;;2.87;1.43;;;11.60;58.90;;;9.97;41.44;100161.69;10463787;27;96697;-78
2023/04/03 11:31:29;;;;;;;57.40;22.07;;;11.60;58.90;;;10.04;41.36;100157.38;10471670;27;97155;-78
2023/04/03 11:36:47;;;;;;;29.97;9.90;;;11.60;59.20;;;10.13;41.12;100147.59;10474919;27;97048;-78
2023/04/03 11:41:52;;;;;;;37.63;13.97;;;11.70;59.00;;;10.27;41.51;100144.31;10490679;27;96591;-78
2023/04/03 11:47:12;;;;;;;109.83;39.17;;;11.70;59.20;;;10.40;41.39;100138.47;10498072;27;96702;-77
2023/04/03 11:53:15;;;;;;;14.10;5.93;;;11.90;59.20;;;10.37;40.70;100133.50;10477283;27;96574;-78
2023/04/03 11:58:28;;;;;;;52.33;17.30;;;11.90;58.70;;;10.29;40.81;100125.53;10478175;27;96659;-78
2023/04/03 12:04:06;;;;;;;4.60;1.73;;;11.80;58.50;;;10.26;40.64;100132.03;10467273;27;96621;-82
2023/04/03 12:09:30;;;;;;;3.07;1.27;;;11.80;58.50;;;10.27;41.27;100130.19;10489289;27;97019;-88
2023/04/03 12:14:41;;;;;;;4.67;1.40;;;11.80;58.80;;;10.33;40.19;100133.00;10463050;27;96773;-85
2023/04/03 12:19:46;;;;;;;2.15;1.27;;;11.80;58.40;;;10.37;40.31;100118.38;10462439;27;96575;-86
2023/04/03 12:24:52;;;;;;;161.00;46.73;;;11.80;58.20;;;10.50;39.95;100119.72;10500952;27;96619;-89
2023/04/03 12:30:05;;;;;;;27.90;9.60;;;12.00;58.20;;;10.47;40.39;100122.69;10487153;27;98627;-88
2023/04/03 12:35:23;;;;;;;30.27;9.13;;;12.00;58.00;;;10.52;41.03;100123.03;10509000;27;96712;-78
2023/04/03 12:40:47;;;;;;;10.60;3.87;;;12.00;58.40;;;10.63;40.54;100117.34;10512285;27;98241;-79
2023/04/03 12:46:00;;;;;;;3.10;1.33;;;12.10;58.40;;;10.65;39.22;100115.34;10513621;27;96744;-79
2023/04/03 12:51:05;;;;;;;5.47;1.80;;;12.20;57.10;;;10.52;39.31;100110.56;10499017;27;96689;-79
2023/04/03 12:56:32;;;;;;;2.00;0.83;;;12.10;57.30;;;10.42;40.18;100104.59;10482165;27;96508;-80
2023/04/03 13:01:35;;;;;;;9.87;2.87;;;11.90;57.20;;;10.48;39.63;100108.41;10515280;27;96439;-80
2023/04/03 13:06:42;;;;;;;5.23;1.47;;;11.90;57.30;;;10.74;41.01;100097.56;10489121;27;96835;-80
2023/04/03 13:11:46;;;;;;;12.90;3.43;;;12.10;58.10;;;10.87;39.77;100095.19;10505062;27;96703;-80
2023/04/03 13:17:21;;;;;;;9.43;3.20;;;12.30;57.80;;;10.97;38.95;100091.31;10488163;27;96676;-79
2023/04/03 13:22:38;;;;;;;10.97;3.17;;;12.40;57.30;;;11.02;38.59;100085.47;10470923;27;96658;-80
2023/04/03 13:27:43;;;;;;;3.53;1.20;;;12.50;56.80;;;11.08;38.82;100078.63;10522510;27;97770;-80
2023/04/03 13:32:47;;;;;;;15.60;4.90;;;12.60;56.90;;;11.17;38.22;100080.25;10511623;27;96532;-81
2023/04/03 13:38:18;;;;;;;6.57;2.37;;;12.60;56.60;;;11.17;37.68;100075.75;10503942;27;98267;-78
2023/04/03 13:43:25;;;;;;;14.43;5.30;;;12.60;56.30;;;11.06;37.61;100070.81;10503084;27;97293;-80
2023/04/03 13:48:46;;;;;;;6.97;2.53;;;12.60;55.90;;;10.93;37.71;100068.72;10482610;27;96459;-80
2023/04/03 13:54:34;;;;;;;4.13;1.35;;;12.50;55.80;;;10.69;39.19;100064.34;10488779;27;96583;-80
2023/04/03 13:59:37;;;;;;;2.53;0.97;;;12.30;55.80;;;10.67;39.01;100062.84;10499990;27;96604;-80
2023/04/03 14:04:43;;;;;;;2.67;1.23;;;12.20;55.90;;;10.57;39.54;100060.41;10484149;27;96631;-79
2023/04/03 14:09:48;;;;;;;9.70;3.37;;;12.10;56.80;;;10.53;39.32;100050.28;10504497;27;97333;-80
2023/04/03 14:14:53;;;;;;;37.67;10.93;;;12.00;56.50;;;10.50;39.88;100053.28;10463414;27;96980;-80
2023/04/03 14:19:57;;;;;;;23.07;7.57;;;12.00;56.70;;;10.48;40.40;100039.34;10506723;27;96572;-79
2023/04/03 14:25:01;;;;;;;18.87;6.90;;;11.90;57.00;;;10.49;40.68;100047.13;10490908;27;96637;-80
2023/04/03 14:30:14;;;;;;;6.83;2.70;;;11.90;57.40;;;10.42;38.83;100044.31;10502914;27;96774;-79
2023/04/03 14:35:19;;;;;;;4.70;1.97;;;11.90;56.10;;;10.34;39.99;100044.34;10489416;27;96629;-79
2023/04/03 14:40:27;;;;;;;44.43;13.87;;;11.90;56.70;;;10.34;40.02;100041.69;10473859;27;96672;-80
2023/04/03 14:45:30;;;;;;;10.20;3.53;;;11.80;56.90;;;10.36;40.59;100041.53;10483606;27;96786;-80
2023/04/03 14:50:33;;;;;;;106.47;33.33;;;11.90;57.10;;;10.34;39.73;100049.66;10474618;27;96506;-78
2023/04/03 14:55:36;;;;;;;7.30;2.80;;;11.90;56.90;;;10.30;39.63;100056.31;10466740;27;97396;-78
2023/04/03 15:00:41;;;;;;;11.37;3.10;;;11.80;56.70;;;10.29;39.96;100057.31;10519633;27;97549;-84
2023/04/03 15:05:47;;;;;;;6.37;3.27;;;11.80;56.90;;;10.17;40.28;100053.31;10496057;27;96667;-84
2023/04/03 15:10:52;;;;;;;14.20;4.90;;;11.70;56.90;;;10.04;40.51;100053.84;10506843;27;98790;-81
2023/04/03 15:15:55;;;;;;;169.90;48.47;;;11.60;56.90;;;10.00;40.84;100059.66;10489891;27;96951;-81
2023/04/03 15:20:59;;;;;;;10.10;3.43;;;11.60;57.30;;;9.87;40.60;100058.34;10505558;27;96627;-83
2023/04/03 15:26:02;;;;;;;9.17;3.40;;;11.40;57.20;;;9.81;42.11;100059.00;10488303;27;98033;-83
2023/04/03 15:31:06;;;;;;;3.40;1.97;;;11.40;58.00;;;9.76;41.95;100053.34;10484656;27;98291;-79
2023/04/03 15:36:10;;;;;;;7.00;3.30;;;11.30;58.20;;;9.58;41.30;100050.03;10517152;27;98349;-79
2023/04/03 15:41:33;;;;;;;6.33;2.90;;;11.20;57.80;;;9.47;42.68;100053.00;10505798;27;98075;-78
2023/04/03 15:46:37;;;;;;;6.30;2.60;;;11.00;58.50;;;9.33;42.73;100060.63;10502976;27;96741;-79
2023/04/03 15:51:41;;;;;;;5.97;2.20;;;10.90;58.60;;;9.25;42.70;100076.53;10493871;27;98561;-79
2023/04/03 15:56:45;;;;;;;27.77;7.00;;;10.80;58.80;;;8.95;42.58;100085.03;10498435;27;96654;-79
2023/04/03 16:01:49;;;;;;;20.67;6.07;;;10.60;58.60;;;8.61;41.90;100095.66;10495621;27;96655;-79
2023/04/03 16:06:53;;;;;;;41.10;12.83;;;10.30;58.00;;;8.34;41.49;100102.75;10505318;27;96749;-79
2023/04/03 16:11:56;;;;;;;37.77;12.60;;;10.10;57.60;;;8.18;42.19;100106.13;10490829;27;97224;-87
2023/04/03 16:17:00;;;;;;;31.43;8.80;;;9.80;57.90;;;7.98;42.16;100099.34;10495499;27;97495;-86
2023/04/03 16:22:03;;;;;;;10.90;4.83;;;9.60;57.80;;;7.82;42.94;100109.78;10485165;27;96614;-82
2023/04/03 16:27:06;;;;;;;5.40;2.50;;;9.40;58.30;;;7.62;42.62;100104.66;10485000;27;97395;-79
2023/04/03 16:32:12;;;;;;;9.33;4.57;;;9.30;58.20;;;7.48;43.41;100124.50;10502889;27;97349;-78
2023/04/03 16:37:16;;;;;;;24.07;8.57;;;9.10;58.70;;;7.32;43.20;100128.81;10516145;27;96591;-78
2023/04/03 16:42:20;;;;;;;8.87;4.67;;;8.90;58.50;;;7.18;43.01;100138.88;10507897;27;96969;-82
2023/04/03 16:47:23;;;;;;;15.10;6.53;;;8.80;58.40;;;7.12;43.91;100144.75;10482169;27;97561;-81
2023/04/03 16:52:26;;;;;;;15.17;6.83;;;8.70;59.10;;;7.09;44.21;100155.63;10482645;27;97380;-82
2023/04/03 16:57:28;;;;;;;14.57;5.80;;;8.70;59.40;;;7.02;44.09;100156.34;10509848;27;98702;-78
2023/04/03 17:02:32;;;;;;;7.50;3.70;;;8.60;59.50;;;6.90;43.60;100164.47;10491480;27;99097;-79
2023/04/03 17:07:35;;;;;;;39.10;13.07;;;8.60;59.00;;;6.84;44.38;100175.63;10500382;27;96668;-78
2023/04/03 17:12:38;;;;;;;16.80;6.50;;;8.50;59.50;;;6.76;43.86;100183.41;10491721;27;97971;-79
2023/04/03 17:17:41;;;;;;;21.77;7.67;;;8.40;59.40;;;6.69;44.31;100199.00;10487498;27;97521;-78
2023/04/03 17:22:44;;;;;;;14.77;6.23;;;8.30;59.50;;;6.67;44.87;100214.16;10515006;27;96679;-79
2023/04/03 17:27:47;;;;;;;13.97;5.57;;;8.30;59.90;;;6.58;44.57;100220.28;10492335;27;96581;-78
2023/04/03 17:32:50;;;;;;;10.30;3.73;;;8.20;59.80;;;6.50;44.51;100246.56;10499788;27;97371;-78
2023/04/03 17:37:53;;;;;;;7.43;3.13;;;8.20;59.70;;;6.43;44.43;100251.59;10507189;27;98279;-78
2023/04/03 17:42:57;;;;;;;8.40;3.90;;;8.10;59.80;;;6.34;44.28;100270.88;10527458;27;96573;-78
2023/04/03 17:48:00;;;;;;;22.70;6.70;;;8.00;59.40;;;6.30;44.28;100281.88;10480155;27;96870;-80
2023/04/03 17:53:03;;;;;;;22.73;7.13;;;7.90;59.50;;;6.24;44.19;100300.88;10512772;27;97328;-80
2023/04/03 17:58:06;;;;;;;29.63;11.93;;;7.90;59.20;;;6.09;43.68;100303.91;10504533;27;98499;-80
2023/04/03 18:03:09;;;;;;;56.77;21.90;;;7.80;58.80;;;6.07;44.11;100316.41;10499086;27;96519;-80
2023/04/03 18:08:12;;;;;;;22.63;9.53;;;7.70;59.10;;;6.04;44.58;100316.69;10463865;27;98882;-86
2023/04/03 18:13:15;;;;;;;9.73;4.00;;;7.70;59.40;;;5.97;43.88;100347.22;10493823;27;97110;-87
2023/04/03 18:18:19;;;;;;;13.53;4.80;;;7.60;59.10;;;5.92;44.13;100354.69;10484303;27;97550;-85
2023/04/03 18:23:24;;;;;;;20.33;7.50;;;7.50;59.30;;;5.84;44.47;100370.31;10514034;27;98736;-82
2023/04/03 18:28:30;;;;;;;7.97;3.47;;;7.50;59.40;;;5.80;45.42;100385.56;10512285;27;97072;-89
2023/04/03 18:33:33;;;;;;;11.97;5.00;;;7.50;60.20;;;5.71;45.63;100396.94;10488492;27;96622;-85
2023/04/03 18:38:36;;;;;;;14.90;5.37;;;7.40;60.50;;;5.61;45.48;100385.50;10524762;27;96707;-87
2023/04/03 18:43:39;;;;;;;12.43;4.73;;;7.30;60.40;;;5.45;44.75;100412.31;10508653;27;96572;-86
2023/04/03 18:48:44;;;;;;;5.03;1.87;;;7.20;59.80;;;5.32;44.80;100415.16;10492197;27;96669;-80
2023/04/03 18:53:47;;;;;;;5.87;1.70;;;7.00;59.70;;;5.21;44.63;100428.38;10496037;27;97454;-79
2023/04/03 18:58:51;;;;;;;5.53;2.60;;;6.90;59.60;;;5.11;45.07;100424.84;10484612;27;98926;-80
2023/04/03 19:03:54;;;;;;;7.47;3.10;;;6.80;59.70;;;5.10;45.37;100433.72;10483046;27;97971;-79
2023/04/03 19:08:58;;;;;;;7.03;3.10;;;6.70;60.00;;;5.00;44.60;100432.81;10500335;27;99522;-78
2023/04/03 19:14:01;;;;;;;7.10;3.23;;;6.70;59.60;;;4.91;44.57;100431.75;10500409;27;96735;-77
2023/04/03 19:19:18;;;;;;;8.83;3.40;;;6.60;59.40;;;4.78;41.89;100434.53;10493519;27;96901;-79
2023/04/03 19:24:21;;;;;;;6.03;2.87;;;6.50;57.40;;;4.59;41.42;100439.63;10474828;27;98249;-80
2023/04/03 19:29:24;;;;;;;8.47;3.07;;;6.30;56.10;;;4.45;41.76;100434.66;10481438;27;96777;-79
2023/04/03 19:34:27;;;;;;;5.40;2.17;;;6.20;56.20;;;4.37;40.99;100426.53;10493761;27;96545;-80
2023/04/03 19:39:34;;;;;;;5.77;1.70;;;6.10;55.50;;;4.26;41.24;100433.50;10504573;27;97449;-80
2023/04/03 19:44:38;;;;;;;3.13;1.87;;;6.00;55.70;;;4.14;41.19;100428.34;10512039;27;98369;-79
2023/04/03 19:49:41;;;;;;;4.57;2.10;;;5.90;55.70;;;4.06;40.81;100436.84;10494036;27;97021;-79
2023/04/03 19:54:44;;;;;;;5.97;2.47;;;5.80;55.50;;;3.99;41.57;100431.22;10475344;27;97435;-80
2023/04/03 19:59:47;;;;;;;4.07;1.97;;;5.70;56.00;;;3.93;41.55;100438.75;10499355;27;98600;-79
2023/04/03 20:04:50;;;;;;;7.33;3.00;;;5.60;55.90;;;3.87;42.21;100429.56;10497518;27;96719;-79
2023/04/03 20:09:54;;;;;;;6.33;3.03;;;5.60;56.40;;;3.86;42.63;100422.63;10501515;27;97605;-79
2023/04/03 20:14:58;;;;;;;6.67;3.43;;;5.50;56.90;;;3.82;43.13;100413.28;10494957;27;96728;-79
2023/04/03 20:20:03;;;;;;;3.57;1.80;;;5.50;57.00;;;3.79;43.41;100416.19;10514271;27;97507;-79
2023/04/03 20:25:11;;;;;;;3.83;1.63;;;5.50;57.30;;;3.78;43.74;100422.41;10503251;27;98286;-79
2023/04/03 20:30:20;;;;;;;2.70;1.63;;;5.50;57.60;;;3.78;43.71;100416.28;10498563;27;96746;-79
2023/04/03 20:35:23;;;;;;;5.13;1.53;;;5.50;57.70;;;3.71;43.37;100418.53;10524166;27;96640;-79
2023/04/03 20:40:27;;;;;;;3.87;2.10;;;5.40;57.40;;;3.63;41.93;100405.16;10515685;27;97709;-79
2023/04/03 20:45:31;;;;;;;4.80;1.63;;;5.40;56.50;;;3.56;41.74;100415.31;10502251;27;96771;-80
2023/04/03 20:50:34;;;;;;;6.70;1.73;;;5.30;56.20;;;3.45;41.55;100412.66;10492491;27;99066;-80
2023/04/03 20:55:38;;;;;;;7.03;2.23;;;5.20;55.80;;;3.38;41.80;100403.59;10489885;27;96495;-80
2023/04/03 21:00:41;;;;;;;3.17;1.40;;;5.10;56.00;;;3.38;42.62;100400.97;10500645;27;96604;-80
2023/04/03 21:05:47;;;;;;;2.27;1.20;;;5.10;56.50;;;3.38;43.02;100409.69;10497454;27;97568;-80
2023/04/03 21:11:46;;;;;;;2.83;1.50;;;5.10;57.00;;;3.36;43.33;100406.34;10481769;27;98321;-79
2023/04/03 21:16:49;;;;;;;4.50;1.73;;;5.00;57.10;;;3.34;43.08;100416.09;10511446;27;96560;-79
2023/04/03 21:21:53;;;;;;;3.87;1.43;;;5.00;57.10;;;3.28;43.06;100406.06;10525930;27;96609;-79